sensor_id;sensor_type;location;lat;lon;timestamp;pressure;altitude;pressure_sealevel;temperature;humidity
65756;BME280;52489;47.502;18.940;2022-10-17T00:00:39;99393.50;;;12.02;73.09
65756;BME280;52489;47.502;18.940;2022-10-17T00:01:42;99396.88;;;12.07;72.73
65756;BME280;52489;47.502;18.940;2022-10-17T00:02:46;99391.22;;;11.85;73.95
65756;BME280;52489;47.502;18.940;2022-10-17T00:03:49;99389.34;;;11.91;73.23
65756;BME280;52489;47.502;18.940;2022-10-17T00:04:52;99393.03;;;11.84;73.29
65756;BME280;52489;47.502;18.940;2022-10-17T00:05:55;99399.66;;;11.72;73.98
65756;BME280;52489;47.502;18.940;2022-10-17T00:06:59;99398.09;;;11.66;73.68
65756;BME280;52489;47.502;18.940;2022-10-17T00:08:02;99390.66;;;11.83;73.40
65756;BME280;52489;47.502;18.940;2022-10-17T00:09:05;99399.34;;;11.78;71.99
65756;BME280;52489;47.502;18.940;2022-10-17T00:10:08;99398.28;;;11.84;71.40
65756;BME280;52489;47.502;18.940;2022-10-17T00:11:20;99399.59;;;11.77;73.54
65756;BME280;52489;47.502;18.940;2022-10-17T00:12:24;99391.97;;;11.86;73.07
65756;BME280;52489;47.502;18.940;2022-10-17T00:13:27;99394.09;;;11.83;73.27
65756;BME280;52489;47.502;18.940;2022-10-17T00:14:30;99393.03;;;11.79;72.92
65756;BME280;52489;47.502;18.940;2022-10-17T00:15:33;99403.78;;;11.83;71.54
65756;BME280;52489;47.502;18.940;2022-10-17T00:16:36;99399.09;;;11.85;72.32
65756;BME280;52489;47.502;18.940;2022-10-17T00:17:39;99396.44;;;11.85;72.81
65756;BME280;52489;47.502;18.940;2022-10-17T00:18:43;99399.91;;;11.70;74.20
65756;BME280;52489;47.502;18.940;2022-10-17T00:19:46;99405.69;;;11.72;73.99
65756;BME280;52489;47.502;18.940;2022-10-17T00:20:49;99399.34;;;11.73;73.23
65756;BME280;52489;47.502;18.940;2022-10-17T00:21:52;99403.00;;;11.88;73.34
65756;BME280;52489;47.502;18.940;2022-10-17T00:22:55;99399.09;;;11.85;72.19
65756;BME280;52489;47.502;18.940;2022-10-17T00:23:59;99399.09;;;11.75;73.31
65756;BME280;52489;47.502;18.940;2022-10-17T00:25:03;99398.34;;;11.69;73.59
65756;BME280;52489;47.502;18.940;2022-10-17T00:26:06;99403.84;;;11.68;73.80
65756;BME280;52489;47.502;18.940;2022-10-17T00:27:09;99399.59;;;11.87;73.16
65756;BME280;52489;47.502;18.940;2022-10-17T00:28:14;99398.28;;;11.90;72.54
65756;BME280;52489;47.502;18.940;2022-10-17T00:29:17;99390.91;;;11.92;72.44
65756;BME280;52489;47.502;18.940;2022-10-17T00:30:20;99395.66;;;11.90;73.03
65756;BME280;52489;47.502;18.940;2022-10-17T00:31:23;99393.56;;;11.87;73.20
65756;BME280;52489;47.502;18.940;2022-10-17T00:32:26;99394.62;;;11.86;73.00
65756;BME280;52489;47.502;18.940;2022-10-17T00:33:30;99403.28;;;11.76;73.27
65756;BME280;52489;47.502;18.940;2022-10-17T00:34:34;99401.72;;;11.75;73.46
65756;BME280;52489;47.502;18.940;2022-10-17T00:35:36;99398.28;;;11.90;73.25
65756;BME280;52489;47.502;18.940;2022-10-17T00:36:39;99390.94;;;11.81;72.75
65756;BME280;52489;47.502;18.940;2022-10-17T00:37:42;99389.38;;;11.80;72.69
65756;BME280;52489;47.502;18.940;2022-10-17T00:38:48;99399.31;;;11.94;72.89
65756;BME280;52489;47.502;18.940;2022-10-17T00:39:52;99396.97;;;11.92;72.71
65756;BME280;52489;47.502;18.940;2022-10-17T00:40:55;99398.56;;;11.78;73.25
65756;BME280;52489;47.502;18.940;2022-10-17T00:41:58;99400.44;;;11.62;74.79
65756;BME280;52489;47.502;18.940;2022-10-17T00:43:01;99395.72;;;11.59;74.45
65756;BME280;52489;47.502;18.940;2022-10-17T00:45:32;99402.75;;;11.89;73.01
65756;BME280;52489;47.502;18.940;2022-10-17T00:46:37;99396.69;;;11.89;73.40
65756;BME280;52489;47.502;18.940;2022-10-17T00:47:41;99401.16;;;11.83;72.90
65756;BME280;52489;47.502;18.940;2022-10-17T00:48:48;99400.38;;;11.82;72.76
65756;BME280;52489;47.502;18.940;2022-10-17T00:49:52;99397.25;;;11.80;73.42
65756;BME280;52489;47.502;18.940;2022-10-17T00:50:58;99399.31;;;11.89;72.52
65756;BME280;52489;47.502;18.940;2022-10-17T00:52:04;99398.81;;;11.81;72.10
65756;BME280;52489;47.502;18.940;2022-10-17T00:53:08;99411.75;;;11.63;73.98
65756;BME280;52489;47.502;18.940;2022-10-17T00:54:14;99393.38;;;11.57;73.91
65756;BME280;52489;47.502;18.940;2022-10-17T00:55:24;99399.72;;;11.46;73.98
65756;BME280;52489;47.502;18.940;2022-10-17T00:56:31;99403.91;;;11.47;74.79
65756;BME280;52489;47.502;18.940;2022-10-17T00:57:34;99400.75;;;11.50;74.83
65756;BME280;52489;47.502;18.940;2022-10-17T00:58:37;99391.56;;;11.53;73.88
65756;BME280;52489;47.502;18.940;2022-10-17T00:59:41;99394.16;;;11.58;74.06
65756;BME280;52489;47.502;18.940;2022-10-17T01:00:47;99397.09;;;11.41;75.62
65756;BME280;52489;47.502;18.940;2022-10-17T01:02:02;99398.19;;;11.30;75.18
65756;BME280;52489;47.502;18.940;2022-10-17T01:03:05;99391.56;;;11.53;74.62
65756;BME280;52489;47.502;18.940;2022-10-17T01:04:09;99392.63;;;11.52;74.16
65756;BME280;52489;47.502;18.940;2022-10-17T01:05:13;99391.06;;;11.51;74.18
65756;BME280;52489;47.502;18.940;2022-10-17T01:06:17;99394.72;;;11.50;75.32
65756;BME280;52489;47.502;18.940;2022-10-17T01:07:20;99399.47;;;11.48;75.32
65756;BME280;52489;47.502;18.940;2022-10-17T01:08:24;99393.63;;;11.66;73.56
65756;BME280;52489;47.502;18.940;2022-10-17T01:09:26;99396.28;;;11.56;74.26
65756;BME280;52489;47.502;18.940;2022-10-17T01:10:47;99390.78;;;11.52;74.88
65756;BME280;52489;47.502;18.940;2022-10-17T01:12:08;99395.78;;;11.49;74.26
65756;BME280;52489;47.502;18.940;2022-10-17T01:13:44;99390.22;;;11.60;74.17
65756;BME280;52489;47.502;18.940;2022-10-17T01:16:19;99399.66;;;11.61;74.65
65756;BME280;52489;47.502;18.940;2022-10-17T01:18:53;99389.91;;;11.77;72.96
65756;BME280;52489;47.502;18.940;2022-10-17T01:20:36;99397.25;;;11.86;72.18
65756;BME280;52489;47.502;18.940;2022-10-17T01:23:19;99383.31;;;11.90;72.76
65756;BME280;52489;47.502;18.940;2022-10-17T01:33:12;99385.75;;;12.21;69.32
65756;BME280;52489;47.502;18.940;2022-10-17T01:35:47;99383.41;;;12.19;68.30
65756;BME280;52489;47.502;18.940;2022-10-17T01:37:03;99386.53;;;12.26;68.25
65756;BME280;52489;47.502;18.940;2022-10-17T01:38:20;99391.53;;;12.23;67.77
65756;BME280;52489;47.502;18.940;2022-10-17T01:40:48;99385.44;;;12.33;67.81
65756;BME280;52489;47.502;18.940;2022-10-17T01:42:26;99391.47;;;12.33;68.37
65756;BME280;52489;47.502;18.940;2022-10-17T01:43:38;99385.16;;;12.34;66.58
65756;BME280;52489;47.502;18.940;2022-10-17T01:45:00;99394.91;;;12.28;67.33
65756;BME280;52489;47.502;18.940;2022-10-17T01:46:12;99392.75;;;12.36;68.61
65756;BME280;52489;47.502;18.940;2022-10-17T01:47:20;99389.69;;;12.23;69.60
65756;BME280;52489;47.502;18.940;2022-10-17T01:48:29;99392.88;;;12.15;69.12
65756;BME280;52489;47.502;18.940;2022-10-17T01:49:34;99395.78;;;12.14;70.23
65756;BME280;52489;47.502;18.940;2022-10-17T01:50:50;99394.41;;;12.26;67.82
65756;BME280;52489;47.502;18.940;2022-10-17T01:51:59;99386.22;;;12.33;66.86
65756;BME280;52489;47.502;18.940;2022-10-17T01:53:09;99397.25;;;12.35;67.11
65756;BME280;52489;47.502;18.940;2022-10-17T01:54:39;99388.81;;;12.38;65.90
65756;BME280;52489;47.502;18.940;2022-10-17T01:55:44;99390.38;;;12.39;66.33
65756;BME280;52489;47.502;18.940;2022-10-17T01:56:51;99389.59;;;12.39;66.41
65756;BME280;52489;47.502;18.940;2022-10-17T01:58:01;99399.28;;;12.43;66.63
65756;BME280;52489;47.502;18.940;2022-10-17T01:59:14;99391.66;;;12.42;68.36
65756;BME280;52489;47.502;18.940;2022-10-17T02:00:23;99393.84;;;12.29;68.75
65756;BME280;52489;47.502;18.940;2022-10-17T02:01:29;99395.91;;;12.38;69.38
65756;BME280;52489;47.502;18.940;2022-10-17T02:02:33;99395.16;;;12.32;68.29
65756;BME280;52489;47.502;18.940;2022-10-17T02:03:39;99393.72;;;12.11;70.07
65756;BME280;52489;47.502;18.940;2022-10-17T02:04:46;99394.81;;;12.04;69.42
65756;BME280;52489;47.502;18.940;2022-10-17T02:05:50;99399.53;;;12.02;69.71
65756;BME280;52489;47.502;18.940;2022-10-17T02:06:53;99398.97;;;12.05;68.46
65756;BME280;52489;47.502;18.940;2022-10-17T02:07:56;99392.31;;;12.23;67.74
65756;BME280;52489;47.502;18.940;2022-10-17T02:08:59;99401.31;;;12.12;67.82
65756;BME280;52489;47.502;18.940;2022-10-17T02:10:09;99396.50;;;12.24;67.87
65756;BME280;52489;47.502;18.940;2022-10-17T02:11:19;99391.25;;;12.24;68.31
65756;BME280;52489;47.502;18.940;2022-10-17T02:12:29;99401.81;;;12.19;67.13
65756;BME280;52489;47.502;18.940;2022-10-17T02:18:24;99395.16;;;12.32;67.31
65756;BME280;52489;47.502;18.940;2022-10-17T02:24:06;99395.62;;;12.39;66.45
65756;BME280;52489;47.502;18.940;2022-10-17T02:25:38;99396.47;;;12.29;67.48
65756;BME280;52489;47.502;18.940;2022-10-17T02:27:16;99386.06;;;12.19;67.87
65756;BME280;52489;47.502;18.940;2022-10-17T02:28:46;99390.44;;;12.29;66.63
65756;BME280;52489;47.502;18.940;2022-10-17T02:29:59;99388.56;;;12.35;66.84
65756;BME280;52489;47.502;18.940;2022-10-17T02:31:12;99392.59;;;12.22;67.18
65756;BME280;52489;47.502;18.940;2022-10-17T02:32:23;99387.34;;;12.22;67.54
65756;BME280;52489;47.502;18.940;2022-10-17T02:34:49;99401.25;;;12.27;66.07
65756;BME280;52489;47.502;18.940;2022-10-17T02:35:55;99402.31;;;12.21;66.38
65756;BME280;52489;47.502;18.940;2022-10-17T02:37:02;99397.00;;;12.32;65.89
65756;BME280;52489;47.502;18.940;2022-10-17T02:38:08;99403.03;;;12.32;66.48
65756;BME280;52489;47.502;18.940;2022-10-17T02:39:14;99407.31;;;12.23;66.11
65756;BME280;52489;47.502;18.940;2022-10-17T02:40:20;99407.00;;;12.24;67.05
65756;BME280;52489;47.502;18.940;2022-10-17T02:41:29;99400.19;;;12.28;68.58
65756;BME280;52489;47.502;18.940;2022-10-17T02:42:34;99403.91;;;12.22;67.61
65756;BME280;52489;47.502;18.940;2022-10-17T02:43:37;99408.38;;;12.17;69.09
65756;BME280;52489;47.502;18.940;2022-10-17T02:44:42;99401.53;;;12.21;69.05
65756;BME280;52489;47.502;18.940;2022-10-17T02:45:46;99402.69;;;12.04;69.67
65756;BME280;52489;47.502;18.940;2022-10-17T02:46:54;99410.78;;;12.13;69.80
65756;BME280;52489;47.502;18.940;2022-10-17T02:49:30;99410.72;;;12.23;68.45
65756;BME280;52489;47.502;18.940;2022-10-17T02:53:45;99422.94;;;11.99;70.24
65756;BME280;52489;47.502;18.940;2022-10-17T02:54:54;99411.91;;;11.97;70.13
65756;BME280;52489;47.502;18.940;2022-10-17T02:56:05;99419.53;;;11.88;70.19
65756;BME280;52489;47.502;18.940;2022-10-17T02:57:28;99418.50;;;11.89;70.23
65756;BME280;52489;47.502;18.940;2022-10-17T02:58:34;99417.47;;;11.85;70.82
65756;BME280;52489;47.502;18.940;2022-10-17T02:59:39;99422.47;;;11.87;70.83
65756;BME280;52489;47.502;18.940;2022-10-17T03:00:43;99419.53;;;11.83;71.05
65756;BME280;52489;47.502;18.940;2022-10-17T03:01:50;99418.56;;;11.69;71.33
65756;BME280;52489;47.502;18.940;2022-10-17T03:02:53;99420.66;;;11.67;71.01
65756;BME280;52489;47.502;18.940;2022-10-17T03:04:13;99417.53;;;11.54;70.37
65756;BME280;52489;47.502;18.940;2022-10-17T03:05:20;99418.31;;;11.55;71.57
65756;BME280;52489;47.502;18.940;2022-10-17T03:06:23;99418.09;;;11.41;70.43
65756;BME280;52489;47.502;18.940;2022-10-17T03:07:26;99423.09;;;11.43;70.92
65756;BME280;52489;47.502;18.940;2022-10-17T03:08:29;99418.03;;;11.56;69.78
65756;BME280;52489;47.502;18.940;2022-10-17T03:09:32;99422.81;;;11.49;71.57
65756;BME280;52489;47.502;18.940;2022-10-17T03:10:34;99424.94;;;11.37;71.01
65756;BME280;52489;47.502;18.940;2022-10-17T03:11:37;99416.00;;;11.43;71.14
65756;BME280;52489;47.502;18.940;2022-10-17T03:12:40;99422.03;;;11.49;70.21
65756;BME280;52489;47.502;18.940;2022-10-17T03:13:43;99417.56;;;11.49;69.21
65756;BME280;52489;47.502;18.940;2022-10-17T03:14:46;99417.31;;;11.51;69.16
65756;BME280;52489;47.502;18.940;2022-10-17T03:15:49;99418.03;;;11.56;71.22
65756;BME280;52489;47.502;18.940;2022-10-17T03:16:52;99418.34;;;11.50;71.26
65756;BME280;52489;47.502;18.940;2022-10-17T03:17:55;99429.31;;;11.62;70.46
65756;BME280;52489;47.502;18.940;2022-10-17T03:18:57;99427.50;;;11.57;70.51
65756;BME280;52489;47.502;18.940;2022-10-17T03:20:01;99434.38;;;11.43;71.41
65756;BME280;52489;47.502;18.940;2022-10-17T03:21:04;99428.34;;;11.48;71.35
65756;BME280;52489;47.502;18.940;2022-10-17T03:22:10;99436.47;;;11.46;70.87
65756;BME280;52489;47.502;18.940;2022-10-17T03:23:13;99434.59;;;11.47;71.99
65756;BME280;52489;47.502;18.940;2022-10-17T03:24:16;99429.09;;;11.48;71.23
65756;BME280;52489;47.502;18.940;2022-10-17T03:25:19;99429.66;;;11.35;71.92
65756;BME280;52489;47.502;18.940;2022-10-17T03:26:22;99434.38;;;11.43;71.95
65756;BME280;52489;47.502;18.940;2022-10-17T03:27:25;99440.91;;;11.41;72.15
65756;BME280;52489;47.502;18.940;2022-10-17T03:28:29;99432.50;;;11.49;71.92
65756;BME280;52489;47.502;18.940;2022-10-17T03:29:31;99436.41;;;11.61;71.76
65756;BME280;52489;47.502;18.940;2022-10-17T03:30:37;99440.66;;;11.42;72.03
65756;BME280;52489;47.502;18.940;2022-10-17T03:31:40;99435.66;;;11.46;71.95
65756;BME280;52489;47.502;18.940;2022-10-17T03:32:43;99437.47;;;11.55;71.69
65756;BME280;52489;47.502;18.940;2022-10-17T03:33:46;99440.91;;;11.41;72.20
65756;BME280;52489;47.502;18.940;2022-10-17T03:34:48;99444.84;;;11.43;71.99
65756;BME280;52489;47.502;18.940;2022-10-17T03:35:51;99443.28;;;11.42;72.20
65756;BME280;52489;47.502;18.940;2022-10-17T03:36:54;99449.56;;;11.41;72.48
65756;BME280;52489;47.502;18.940;2022-10-17T03:37:58;99446.97;;;11.36;72.38
65756;BME280;52489;47.502;18.940;2022-10-17T03:39:01;99449.34;;;11.27;72.76
65756;BME280;52489;47.502;18.940;2022-10-17T03:40:04;99451.19;;;11.16;73.10
65756;BME280;52489;47.502;18.940;2022-10-17T03:41:07;99453.81;;;11.22;72.95
65756;BME280;52489;47.502;18.940;2022-10-17T03:42:10;99451.19;;;11.16;73.21
65756;BME280;52489;47.502;18.940;2022-10-17T03:43:13;99449.88;;;10.99;73.92
65756;BME280;52489;47.502;18.940;2022-10-17T03:44:16;99454.34;;;11.08;73.67
65756;BME280;52489;47.502;18.940;2022-10-17T03:45:19;99460.37;;;11.14;73.50
65756;BME280;52489;47.502;18.940;2022-10-17T03:46:22;99452.50;;;11.14;73.34
65756;BME280;52489;47.502;18.940;2022-10-17T03:47:25;99455.13;;;11.19;73.09
65756;BME280;52489;47.502;18.940;2022-10-17T03:48:36;99461.69;;;11.16;73.02
65756;BME280;52489;47.502;18.940;2022-10-17T03:49:39;99454.34;;;11.19;72.87
65756;BME280;52489;47.502;18.940;2022-10-17T03:50:42;99460.37;;;11.04;73.02
65756;BME280;52489;47.502;18.940;2022-10-17T03:51:45;99454.59;;;10.97;73.71
65756;BME280;52489;47.502;18.940;2022-10-17T03:52:48;99461.41;;;11.03;73.97
65756;BME280;52489;47.502;18.940;2022-10-17T03:53:51;99457.75;;;10.93;74.32
65756;BME280;52489;47.502;18.940;2022-10-17T03:54:54;99458.25;;;10.75;74.68
65756;BME280;52489;47.502;18.940;2022-10-17T03:56:17;99460.37;;;10.93;74.50
65756;BME280;52489;47.502;18.940;2022-10-17T03:57:21;99463.00;;;10.93;74.57
65756;BME280;52489;47.502;18.940;2022-10-17T03:58:23;99464.56;;;10.84;74.71
65756;BME280;52489;47.502;18.940;2022-10-17T03:59:26;99458.25;;;10.85;74.60
65756;BME280;52489;47.502;18.940;2022-10-17T04:00:29;99463.25;;;10.87;74.71
65756;BME280;52489;47.502;18.940;2022-10-17T04:01:32;99469.25;;;10.82;74.67
65756;BME280;52489;47.502;18.940;2022-10-17T04:02:35;99458.25;;;10.85;74.75
65756;BME280;52489;47.502;18.940;2022-10-17T04:03:38;99463.50;;;10.80;74.99
65756;BME280;52489;47.502;18.940;2022-10-17T04:04:41;99462.19;;;10.78;75.09
65756;BME280;52489;47.502;18.940;2022-10-17T04:05:44;99460.34;;;10.73;75.07
65756;BME280;52489;47.502;18.940;2022-10-17T04:06:47;99456.44;;;10.65;75.29
65756;BME280;52489;47.502;18.940;2022-10-17T04:07:50;99461.13;;;10.63;75.42
65756;BME280;52489;47.502;18.940;2022-10-17T04:08:52;99466.13;;;10.75;75.27
65756;BME280;52489;47.502;18.940;2022-10-17T04:09:55;99466.13;;;10.65;75.25
65756;BME280;52489;47.502;18.940;2022-10-17T04:10:59;99468.16;;;10.53;75.65
65756;BME280;52489;47.502;18.940;2022-10-17T04:12:02;99467.87;;;10.44;75.95
65756;BME280;52489;47.502;18.940;2022-10-17T04:13:05;99466.56;;;10.36;76.20
65756;BME280;52489;47.502;18.940;2022-10-17T04:14:09;99467.09;;;10.43;76.03
65756;BME280;52489;47.502;18.940;2022-10-17T04:15:12;99468.13;;;10.37;76.59
65756;BME280;52489;47.502;18.940;2022-10-17T04:16:16;99466.31;;;10.43;76.38
65756;BME280;52489;47.502;18.940;2022-10-17T04:17:19;99473.94;;;10.50;75.98
65756;BME280;52489;47.502;18.940;2022-10-17T04:18:23;99472.34;;;10.43;75.96
65756;BME280;52489;47.502;18.940;2022-10-17T04:19:26;99474.22;;;10.63;75.65
65756;BME280;52489;47.502;18.940;2022-10-17T04:20:29;99470.81;;;10.63;75.71
65756;BME280;52489;47.502;18.940;2022-10-17T04:21:32;99464.53;;;10.64;75.37
65756;BME280;52489;47.502;18.940;2022-10-17T04:22:35;99472.91;;;10.56;75.86
65756;BME280;52489;47.502;18.940;2022-10-17T04:23:38;99468.44;;;10.51;75.80
65756;BME280;52489;47.502;18.940;2022-10-17T04:24:41;99472.38;;;10.48;75.88
65756;BME280;52489;47.502;18.940;2022-10-17T04:25:44;99469.50;;;10.55;75.60
65756;BME280;52489;47.502;18.940;2022-10-17T04:26:50;99479.22;;;10.60;75.27
65756;BME280;52489;47.502;18.940;2022-10-17T04:27:53;99472.91;;;10.56;75.17
65756;BME280;52489;47.502;18.940;2022-10-17T04:28:56;99472.09;;;10.45;75.64
65756;BME280;52489;47.502;18.940;2022-10-17T04:29:59;99471.84;;;10.41;75.80
65756;BME280;52489;47.502;18.940;2022-10-17T04:31:04;99468.91;;;10.38;75.62
65756;BME280;52489;47.502;18.940;2022-10-17T04:32:07;99468.13;;;10.32;75.96
65756;BME280;52489;47.502;18.940;2022-10-17T04:33:10;99475.97;;;10.27;75.82
65756;BME280;52489;47.502;18.940;2022-10-17T04:34:14;99470.50;;;10.34;74.44
65756;BME280;52489;47.502;18.940;2022-10-17T04:35:17;99479.12;;;10.34;73.81
65756;BME280;52489;47.502;18.940;2022-10-17T04:36:20;99474.44;;;10.36;73.77
65756;BME280;52489;47.502;18.940;2022-10-17T04:37:24;99473.94;;;10.50;73.91
65756;BME280;52489;47.502;18.940;2022-10-17T04:38:32;99476.25;;;10.41;73.73
65756;BME280;52489;47.502;18.940;2022-10-17T04:39:35;99483.56;;;10.29;74.68
65756;BME280;52489;47.502;18.940;2022-10-17T04:40:38;99480.72;;;10.30;74.44
65756;BME280;52489;47.502;18.940;2022-10-17T04:41:41;99479.41;;;10.38;72.57
65756;BME280;52489;47.502;18.940;2022-10-17T04:42:44;99484.63;;;10.38;72.79
65756;BME280;52489;47.502;18.940;2022-10-17T04:43:47;99485.94;;;10.30;74.64
65756;BME280;52489;47.502;18.940;2022-10-17T04:44:52;99483.84;;;10.37;74.17
65756;BME280;52489;47.502;18.940;2022-10-17T04:46:00;99481.78;;;10.39;73.21
65756;BME280;52489;47.502;18.940;2022-10-17T04:47:04;99480.75;;;10.45;74.16
65756;BME280;52489;47.502;18.940;2022-10-17T04:48:07;99485.97;;;10.40;73.67
65756;BME280;52489;47.502;18.940;2022-10-17T04:49:10;99487.44;;;10.26;75.10
65756;BME280;52489;47.502;18.940;2022-10-17T04:50:16;99489.81;;;10.22;73.84
65756;BME280;52489;47.502;18.940;2022-10-17T04:51:19;99489.09;;;10.37;74.07
65756;BME280;52489;47.502;18.940;2022-10-17T04:52:27;99484.91;;;10.36;74.37
65756;BME280;52489;47.502;18.940;2022-10-17T04:53:32;99497.75;;;10.38;73.72
65756;BME280;52489;47.502;18.940;2022-10-17T04:54:35;99489.34;;;10.31;73.59
65756;BME280;52489;47.502;18.940;2022-10-17T04:55:38;99487.78;;;10.35;74.13
65756;BME280;52489;47.502;18.940;2022-10-17T04:56:50;99492.22;;;10.34;74.80
65756;BME280;52489;47.502;18.940;2022-10-17T04:57:53;99499.09;;;10.45;74.63
65756;BME280;52489;47.502;18.940;2022-10-17T04:58:57;99489.09;;;10.37;74.06
65756;BME280;52489;47.502;18.940;2022-10-17T05:00:01;99492.25;;;10.39;73.72
65756;BME280;52489;47.502;18.940;2022-10-17T05:01:09;99495.69;;;10.45;71.99
65756;BME280;52489;47.502;18.940;2022-10-17T05:02:13;99495.31;;;10.26;74.33
65756;BME280;52489;47.502;18.940;2022-10-17T05:03:16;99501.69;;;10.45;73.99
65756;BME280;52489;47.502;18.940;2022-10-17T05:04:19;99499.84;;;10.41;73.54
65756;BME280;52489;47.502;18.940;2022-10-17T05:05:26;99496.38;;;10.25;75.21
65756;BME280;52489;47.502;18.940;2022-10-17T05:06:29;99503.75;;;10.28;73.98
65756;BME280;52489;47.502;18.940;2022-10-17T05:07:33;99499.03;;;10.30;74.08
65756;BME280;52489;47.502;18.940;2022-10-17T05:08:36;99506.13;;;10.40;73.99
65756;BME280;52489;47.502;18.940;2022-10-17T05:09:38;99498.69;;;10.16;74.54
65756;BME280;52489;47.502;18.940;2022-10-17T05:10:43;99503.69;;;10.18;73.50
65756;BME280;52489;47.502;18.940;2022-10-17T05:11:47;99495.81;;;10.18;74.20
65756;BME280;52489;47.502;18.940;2022-10-17T05:12:50;99500.78;;;10.19;74.05
65756;BME280;52489;47.502;18.940;2022-10-17T05:13:58;99505.66;;;10.53;74.52
65756;BME280;52489;47.502;18.940;2022-10-17T05:15:02;99503.34;;;10.62;74.10
65756;BME280;52489;47.502;18.940;2022-10-17T05:16:08;99502.75;;;10.44;74.80
65756;BME280;52489;47.502;18.940;2022-10-17T05:17:12;99507.69;;;10.41;72.09
65756;BME280;52489;47.502;18.940;2022-10-17T05:18:15;99509.28;;;10.37;73.88
65756;BME280;52489;47.502;18.940;2022-10-17T05:19:17;99509.28;;;10.42;73.48
65756;BME280;52489;47.502;18.940;2022-10-17T05:20:20;99510.31;;;10.41;73.64
65756;BME280;52489;47.502;18.940;2022-10-17T05:21:25;99507.72;;;10.46;73.56
65756;BME280;52489;47.502;18.940;2022-10-17T05:22:28;99506.41;;;10.43;73.37
65756;BME280;52489;47.502;18.940;2022-10-17T05:23:32;99510.63;;;10.44;74.18
65756;BME280;52489;47.502;18.940;2022-10-17T05:24:34;99525.50;;;10.34;73.77
65756;BME280;52489;47.502;18.940;2022-10-17T05:25:40;99517.66;;;10.34;73.88
65756;BME280;52489;47.502;18.940;2022-10-17T05:26:43;99519.47;;;10.33;74.24
65756;BME280;52489;47.502;18.940;2022-10-17T05:27:46;99522.09;;;10.33;74.77
65756;BME280;52489;47.502;18.940;2022-10-17T05:28:49;99524.25;;;10.52;74.16
65756;BME280;52489;47.502;18.940;2022-10-17T05:29:54;99528.44;;;10.53;73.61
65756;BME280;52489;47.502;18.940;2022-10-17T05:31:04;99529.47;;;10.41;73.93
65756;BME280;52489;47.502;18.940;2022-10-17T05:32:07;99525.53;;;10.44;73.67
65756;BME280;52489;47.502;18.940;2022-10-17T05:33:10;99522.41;;;10.52;72.12
65756;BME280;52489;47.502;18.940;2022-10-17T05:34:13;99531.00;;;10.37;73.93
65756;BME280;52489;47.502;18.940;2022-10-17T05:35:15;99532.53;;;10.28;73.86
65756;BME280;52489;47.502;18.940;2022-10-17T05:36:19;99534.94;;;10.35;73.59
65756;BME280;52489;47.502;18.940;2022-10-17T05:37:22;99533.66;;;10.42;73.81
65756;BME280;52489;47.502;18.940;2022-10-17T05:38:26;99537.31;;;10.46;72.75
65756;BME280;52489;47.502;18.940;2022-10-17T05:39:29;99532.09;;;10.46;74.02
65756;BME280;52489;47.502;18.940;2022-10-17T05:40:33;99531.06;;;10.47;73.69
65756;BME280;52489;47.502;18.940;2022-10-17T05:41:35;99542.09;;;10.60;73.33
65756;BME280;52489;47.502;18.940;2022-10-17T05:42:38;99538.41;;;10.51;74.10
65756;BME280;52489;47.502;18.940;2022-10-17T05:43:46;99534.72;;;10.52;73.71
65756;BME280;52489;47.502;18.940;2022-10-17T05:44:49;99540.78;;;10.57;73.74
65756;BME280;52489;47.502;18.940;2022-10-17T05:45:52;99538.91;;;10.47;73.40
65756;BME280;52489;47.502;18.940;2022-10-17T05:46:56;99543.87;;;10.49;73.04
65756;BME280;52489;47.502;18.940;2022-10-17T05:47:59;99542.06;;;10.44;74.40
65756;BME280;52489;47.502;18.940;2022-10-17T05:49:02;99544.66;;;10.50;74.00
65756;BME280;52489;47.502;18.940;2022-10-17T05:50:20;99548.12;;;10.70;73.28
65756;BME280;52489;47.502;18.940;2022-10-17T05:51:25;99546.28;;;10.61;73.84
65756;BME280;52489;47.502;18.940;2022-10-17T05:52:29;99553.38;;;10.60;74.14
65756;BME280;52489;47.502;18.940;2022-10-17T05:53:34;99556.78;;;10.61;73.28
65756;BME280;52489;47.502;18.940;2022-10-17T05:54:37;99560.72;;;10.63;73.07
65756;BME280;52489;47.502;18.940;2022-10-17T05:55:40;99557.88;;;10.75;73.79
65756;BME280;52489;47.502;18.940;2022-10-17T05:56:43;99556.28;;;10.74;73.48
65756;BME280;52489;47.502;18.940;2022-10-17T05:57:46;99557.88;;;10.80;73.73
65756;BME280;52489;47.502;18.940;2022-10-17T05:58:49;99558.91;;;10.79;73.86
65756;BME280;52489;47.502;18.940;2022-10-17T05:59:56;99563.12;;;10.85;73.15
65756;BME280;52489;47.502;18.940;2022-10-17T06:01:01;99564.41;;;10.73;73.26
65756;BME280;52489;47.502;18.940;2022-10-17T06:02:05;99563.88;;;10.65;73.66
65756;BME280;52489;47.502;18.940;2022-10-17T06:03:11;99563.09;;;10.75;73.50
65756;BME280;52489;47.502;18.940;2022-10-17T06:04:14;99566.78;;;10.79;71.91
65756;BME280;52489;47.502;18.940;2022-10-17T06:05:17;99573.84;;;10.68;73.06
65756;BME280;52489;47.502;18.940;2022-10-17T06:06:20;99562.25;;;10.54;74.31
65756;BME280;52489;47.502;18.940;2022-10-17T06:07:23;99573.56;;;10.65;73.48
65756;BME280;52489;47.502;18.940;2022-10-17T06:08:25;99577.78;;;10.71;73.40
65756;BME280;52489;47.502;18.940;2022-10-17T06:09:28;99575.97;;;10.82;73.68
65756;BME280;52489;47.502;18.940;2022-10-17T06:10:31;99579.66;;;10.86;73.61
65756;BME280;52489;47.502;18.940;2022-10-17T06:11:35;99577.56;;;10.93;73.15
65756;BME280;52489;47.502;18.940;2022-10-17T06:12:38;99586.44;;;10.77;73.25
65756;BME280;52489;47.502;18.940;2022-10-17T06:13:41;99581.19;;;10.82;73.14
65756;BME280;52489;47.502;18.940;2022-10-17T06:14:44;99574.94;;;10.88;73.18
65756;BME280;52489;47.502;18.940;2022-10-17T06:15:46;99582.53;;;10.89;72.93